Shawnee Mission, KS (66224)

9:04 AM CST on December 26, 2014 (GMT -0600)
KKSLEAWO2 | Change Station
CLOSE
Current Station
Personal Weather Station
Location: Leawood, KS
Elevation: 940 ft
Nearby Weather Stations

Elev 940 ft 38.90 °N, 94.63 °W | Updated 55 seconds ago

Mostly Cloudy
Mostly Cloudy
45.5 °F
Feels Like 46 °F
N
2.5
Wind Variable Wind from WSW
Gusts 5.6 mph

Today
High -- | Low -- °F
--% Chance of Precip.
Yesterday
High -- | Low -- °F
Precip. -- in
7:35 AM 5:02 PM
Waxing Crescent, 26% visible
Pressure 29.93 in
Visibility 10.0 miles
Clouds Clear
Windchill 46 °F
Dew Point 39 °F
Humidity 81%
Rainfall 0.00 in
Snow Depth Not available.
UV 1 out of 12
Pollen .10 out of 12
Air Quality Not available.
Flu Activity Not available.
METAR KOJC 261453Z 20007KT 10SM CLR 07/04 A2992 RMK AO2 SLP133 T00720039 51017

More Conditions Fewer Conditions

Pressure 29.93 in
Visibility 10.0 miles
Clouds Clear
Windchill 46 °F
Dew Point 39 °F
Humidity 81%
Rainfall 0.00 in
Snow Depth Not available.
UV 1 out of 12
Pollen .10 out of 12
Air Quality Not available.
Flu Activity Not available.
METAR KOJC 261453Z 20007KT 10SM CLR 07/04 A2992 RMK AO2 SLP133 T00720039 51017

More Conditions Fewer Conditions

10-Day Weather Forecast

Almanac

Astronomy

Dec. 26, 2014 Rise Set
Actual Time
Civil Twilight
Nautical Twilight
Astronomical Twilight
Moon
Length of Visible Light
Length of Day
Tomorrow will be .
, % of the Moon is Illuminated

Today's Extremes

State Highs State Lows

Community

WunderPhotos

Upload Photos

1,780,597 photos uploaded!

WunderBlogs® & News

Nearby

Air Quality

  Air Quality AQ Index Pollutant
Not available.

Snow Depth

Station Depth Elevation

Earthquake Activity

City Distance Mag. Time & Date
Minimum magnitude displayed is 2.5.

Coastal Water Temperatures

Place Temperature

Nearby Weather Stations